BEL1VC LGAV-EBBR
Flight info
| Callsign | BEL1VC |
|---|---|
| Flight time | 2h 56m |
| Altitude | 36000 |
| Route | KOR UL53 ELVAS DCT TUMBO DCT OVVER DCT RODON DCT VAKSU DCT MONFA/N0452F380 DCT BAKOR DCT SOTOV DCT KPT L608 KUNOD DCT IDOVI Z104 GESLO N852 LNO |
| Aircraft | A320/M-SDE3FGHIRWY/LB1 |
Departure
| Time | 2026-05-08 07:18 |
|---|---|
| Airport | Athens Eleftherios Venizelos International Airport (LGAV) |
Arrival
| Time | 2026-05-08 10:14 |
|---|---|
| Airport | Brussels Airport (EBBR) |
| Time | Latitude | Longitude | Altitude | Speed | Heading |
|---|---|---|---|---|---|
| 2026-05-08 07:00 | 37.93019 | 23.94327 | 301 ft | 0 kts | 38° |
| 2026-05-08 07:10 | 37.93008 | 23.94316 | 301 ft | 4 kts | 36° |
| 2026-05-08 07:11 | 37.92991 | 23.94300 | 302 ft | 4 kts | 37° |
| 2026-05-08 07:11 | 37.92970 | 23.94279 | 301 ft | 4 kts | 42° |
| 2026-05-08 07:11 | 37.92953 | 23.94255 | 303 ft | 4 kts | 75° |
| 2026-05-08 07:11 | 37.92957 | 23.94231 | 301 ft | 4 kts | 127° |
| 2026-05-08 07:12 | 37.92965 | 23.94218 | 300 ft | 0 kts | 127° |
| 2026-05-08 07:13 | 37.92964 | 23.94219 | 300 ft | 1 kts | 127° |
| 2026-05-08 07:13 | 37.92927 | 23.94281 | 302 ft | 17 kts | 127° |
| 2026-05-08 07:14 | 37.92848 | 23.94412 | 303 ft | 19 kts | 127° |
| 2026-05-08 07:14 | 37.92872 | 23.94544 | 301 ft | 17 kts | 38° |
| 2026-05-08 07:14 | 37.92973 | 23.94639 | 303 ft | 23 kts | 36° |
| 2026-05-08 07:14 | 37.93133 | 23.94791 | 301 ft | 31 kts | 37° |
| 2026-05-08 07:15 | 37.93311 | 23.94958 | 299 ft | 32 kts | 36° |
| 2026-05-08 07:15 | 37.93495 | 23.95134 | 300 ft | 34 kts | 35° |
| 2026-05-08 07:15 | 37.93686 | 23.95316 | 301 ft | 35 kts | 37° |
| 2026-05-08 07:15 | 37.93882 | 23.95503 | 298 ft | 36 kts | 37° |
| 2026-05-08 07:16 | 37.94086 | 23.95694 | 299 ft | 36 kts | 37° |
| 2026-05-08 07:16 | 37.94274 | 23.95873 | 299 ft | 33 kts | 38° |
| 2026-05-08 07:16 | 37.94460 | 23.96046 | 298 ft | 33 kts | 39° |
| 2026-05-08 07:16 | 37.94627 | 23.96209 | 299 ft | 22 kts | 38° |
| 2026-05-08 07:17 | 37.94623 | 23.96317 | 300 ft | 12 kts | 147° |
| 2026-05-08 07:17 | 37.94528 | 23.96317 | 292 ft | 18 kts | 189° |
| 2026-05-08 07:17 | 37.94263 | 23.96139 | 286 ft | 78 kts | 217° |
| 2026-05-08 07:17 | 37.93658 | 23.95565 | 281 ft | 137 kts | 217° |
| 2026-05-08 07:18 | 37.92816 | 23.94787 | 656 ft | 150 kts | 215° |
| 2026-05-08 07:18 | 37.91980 | 23.94006 | 1315 ft | 149 kts | 216° |
| 2026-05-08 07:18 | 37.91093 | 23.93352 | 1989 ft | 150 kts | 206° |
| 2026-05-08 07:18 | 37.90097 | 23.92701 | 2353 ft | 171 kts | 208° |
| 2026-05-08 07:19 | 37.88993 | 23.91955 | 2737 ft | 189 kts | 208° |
| 2026-05-08 07:19 | 37.87792 | 23.91142 | 3254 ft | 199 kts | 208° |
| 2026-05-08 07:19 | 37.86571 | 23.90315 | 3844 ft | 204 kts | 208° |
| 2026-05-08 07:19 | 37.85315 | 23.89467 | 4608 ft | 205 kts | 208° |
| 2026-05-08 07:20 | 37.84049 | 23.88617 | 5316 ft | 208 kts | 208° |
| 2026-05-08 07:20 | 37.82758 | 23.87753 | 5991 ft | 212 kts | 209° |
| 2026-05-08 07:20 | 37.81443 | 23.86871 | 6669 ft | 216 kts | 209° |
| 2026-05-08 07:20 | 37.80106 | 23.85975 | 7335 ft | 219 kts | 209° |
| 2026-05-08 07:21 | 37.78755 | 23.85070 | 8022 ft | 220 kts | 210° |
| 2026-05-08 07:21 | 37.77425 | 23.84175 | 8711 ft | 222 kts | 210° |
| 2026-05-08 07:21 | 37.76050 | 23.83253 | 9463 ft | 224 kts | 210° |
| 2026-05-08 07:21 | 37.74664 | 23.82327 | 10176 ft | 227 kts | 210° |
| 2026-05-08 07:22 | 37.73256 | 23.81388 | 10830 ft | 230 kts | 211° |
| 2026-05-08 07:22 | 37.71832 | 23.80438 | 11503 ft | 233 kts | 212° |
| 2026-05-08 07:22 | 37.70391 | 23.79473 | 12181 ft | 236 kts | 213° |
| 2026-05-08 07:22 | 37.68932 | 23.78498 | 12869 ft | 238 kts | 213° |
| 2026-05-08 07:23 | 37.67455 | 23.77514 | 13553 ft | 241 kts | 214° |
| 2026-05-08 07:23 | 37.65954 | 23.76514 | 14205 ft | 244 kts | 215° |
| 2026-05-08 07:23 | 37.64442 | 23.75506 | 14782 ft | 247 kts | 215° |
| 2026-05-08 07:23 | 37.62910 | 23.74488 | 15369 ft | 250 kts | 216° |
| 2026-05-08 07:24 | 37.61361 | 23.73460 | 15955 ft | 253 kts | 216° |
| 2026-05-08 07:24 | 37.59795 | 23.72418 | 16542 ft | 256 kts | 217° |
| 2026-05-08 07:24 | 37.58235 | 23.71378 | 17123 ft | 258 kts | 217° |
| 2026-05-08 07:24 | 37.56818 | 23.70071 | 17687 ft | 248 kts | 237° |
| 2026-05-08 07:25 | 37.55993 | 23.68229 | 18215 ft | 239 kts | 260° |
| 2026-05-08 07:25 | 37.55622 | 23.66185 | 18747 ft | 240 kts | 262° |
| 2026-05-08 07:25 | 37.54905 | 23.62050 | 19804 ft | 243 kts | 261° |
| 2026-05-08 07:26 | 37.54539 | 23.59969 | 20338 ft | 244 kts | 261° |
| 2026-05-08 07:26 | 37.54170 | 23.57876 | 20867 ft | 245 kts | 261° |
| 2026-05-08 07:26 | 37.53799 | 23.55774 | 21390 ft | 246 kts | 260° |
| 2026-05-08 07:26 | 37.53548 | 23.54346 | 21745 ft | 247 kts | 260° |
| 2026-05-08 07:27 | 37.53175 | 23.52225 | 22263 ft | 249 kts | 260° |
| 2026-05-08 07:27 | 37.52802 | 23.50089 | 22778 ft | 250 kts | 259° |
| 2026-05-08 07:27 | 37.52427 | 23.47948 | 23292 ft | 251 kts | 259° |
| 2026-05-08 07:27 | 37.52047 | 23.45790 | 23785 ft | 253 kts | 259° |
| 2026-05-08 07:28 | 37.51665 | 23.43619 | 24227 ft | 254 kts | 259° |
| 2026-05-08 07:28 | 37.51279 | 23.41445 | 24672 ft | 255 kts | 258° |
| 2026-05-08 07:28 | 37.50892 | 23.39262 | 25103 ft | 256 kts | 258° |
| 2026-05-08 07:28 | 37.50509 | 23.37105 | 25522 ft | 256 kts | 258° |
| 2026-05-08 07:29 | 37.50120 | 23.34913 | 25953 ft | 257 kts | 258° |
| 2026-05-08 07:29 | 37.49727 | 23.32714 | 26375 ft | 259 kts | 258° |
| 2026-05-08 07:29 | 37.49332 | 23.30500 | 26781 ft | 260 kts | 258° |
| 2026-05-08 07:29 | 37.48937 | 23.28274 | 27193 ft | 261 kts | 258° |
| 2026-05-08 07:30 | 37.48541 | 23.26035 | 27591 ft | 263 kts | 258° |
| 2026-05-08 07:30 | 37.48439 | 23.23737 | 27922 ft | 268 kts | 277° |
| 2026-05-08 07:30 | 37.49148 | 23.21522 | 28105 ft | 285 kts | 299° |
| 2026-05-08 07:30 | 37.50714 | 23.19826 | 28253 ft | 315 kts | 321° |
| 2026-05-08 07:31 | 37.52711 | 23.18549 | 28384 ft | 327 kts | 323° |
| 2026-05-08 07:31 | 37.54789 | 23.17273 | 28524 ft | 338 kts | 323° |
| 2026-05-08 07:31 | 37.56939 | 23.15965 | 28657 ft | 348 kts | 324° |
| 2026-05-08 07:31 | 37.59159 | 23.14613 | 28790 ft | 359 kts | 324° |
| 2026-05-08 07:32 | 37.61438 | 23.13221 | 28927 ft | 369 kts | 324° |
| 2026-05-08 07:32 | 37.63776 | 23.11787 | 29061 ft | 378 kts | 324° |
| 2026-05-08 07:32 | 37.66173 | 23.10309 | 29203 ft | 387 kts | 324° |
| 2026-05-08 07:32 | 37.68615 | 23.08795 | 29341 ft | 395 kts | 323° |
| 2026-05-08 07:33 | 37.71106 | 23.07247 | 29494 ft | 403 kts | 323° |
| 2026-05-08 07:33 | 37.73640 | 23.05671 | 29632 ft | 410 kts | 323° |
| 2026-05-08 07:33 | 37.76228 | 23.04061 | 29767 ft | 418 kts | 324° |
| 2026-05-08 07:33 | 37.78861 | 23.02423 | 29905 ft | 424 kts | 324° |
| 2026-05-08 07:34 | 37.81528 | 23.00759 | 30048 ft | 430 kts | 324° |
| 2026-05-08 07:34 | 37.84230 | 22.99072 | 30183 ft | 435 kts | 324° |
| 2026-05-08 07:34 | 37.86960 | 22.97368 | 30305 ft | 440 kts | 324° |
| 2026-05-08 07:34 | 37.89692 | 22.95616 | 30479 ft | 438 kts | 320° |
| 2026-05-08 07:35 | 37.92181 | 22.93482 | 30734 ft | 427 kts | 312° |
| 2026-05-08 07:35 | 37.94317 | 22.90949 | 31021 ft | 416 kts | 304° |
| 2026-05-08 07:35 | 37.96081 | 22.88102 | 31340 ft | 407 kts | 297° |
| 2026-05-08 07:35 | 37.97692 | 22.85158 | 31619 ft | 406 kts | 297° |
| 2026-05-08 07:36 | 37.99305 | 22.82218 | 31921 ft | 405 kts | 297° |
| 2026-05-08 07:36 | 38.00914 | 22.79292 | 32240 ft | 404 kts | 297° |
| 2026-05-08 07:36 | 38.02498 | 22.76417 | 32549 ft | 402 kts | 297° |
| 2026-05-08 07:36 | 38.04097 | 22.73507 | 32842 ft | 401 kts | 297° |
| 2026-05-08 07:37 | 38.05687 | 22.70610 | 33143 ft | 400 kts | 297° |
| 2026-05-08 07:37 | 38.07275 | 22.67723 | 33464 ft | 398 kts | 297° |
| 2026-05-08 07:37 | 38.08854 | 22.64850 | 33793 ft | 396 kts | 297° |
| 2026-05-08 07:37 | 38.10428 | 22.61983 | 34126 ft | 394 kts | 297° |
| 2026-05-08 07:38 | 38.11990 | 22.59129 | 34407 ft | 393 kts | 297° |
| 2026-05-08 07:38 | 38.13542 | 22.56279 | 34656 ft | 392 kts | 297° |
| 2026-05-08 07:38 | 38.15091 | 22.53427 | 34882 ft | 392 kts | 297° |
| 2026-05-08 07:38 | 38.16645 | 22.50571 | 35094 ft | 392 kts | 297° |
| 2026-05-08 07:39 | 38.18195 | 22.47727 | 35314 ft | 392 kts | 297° |
| 2026-05-08 07:39 | 38.19746 | 22.44880 | 35554 ft | 392 kts | 297° |
| 2026-05-08 07:39 | 38.21303 | 22.42029 | 35736 ft | 392 kts | 297° |
| 2026-05-08 07:39 | 38.22858 | 22.39175 | 35919 ft | 392 kts | 297° |
| 2026-05-08 07:40 | 38.24415 | 22.36315 | 36084 ft | 393 kts | 297° |
| 2026-05-08 07:40 | 38.27531 | 22.30571 | 36135 ft | 395 kts | 297° |
| 2026-05-08 07:41 | 38.30654 | 22.24800 | 36151 ft | 396 kts | 297° |
| 2026-05-08 07:41 | 38.33785 | 22.19006 | 36136 ft | 397 kts | 297° |
| 2026-05-08 07:42 | 38.36874 | 22.13289 | 36136 ft | 398 kts | 297° |
| 2026-05-08 07:42 | 38.39988 | 22.07496 | 36141 ft | 399 kts | 297° |
| 2026-05-08 07:43 | 38.43132 | 22.01648 | 36135 ft | 400 kts | 297° |
| 2026-05-08 07:43 | 38.46276 | 21.95793 | 36136 ft | 400 kts | 297° |
| 2026-05-08 07:44 | 38.49418 | 21.89921 | 36122 ft | 400 kts | 297° |
| 2026-05-08 07:44 | 38.52825 | 21.84261 | 36119 ft | 410 kts | 308° |
| 2026-05-08 07:44 | 38.55067 | 21.81928 | 36133 ft | 422 kts | 317° |
| 2026-05-08 07:45 | 38.57502 | 21.79837 | 36139 ft | 422 kts | 317° |
| 2026-05-08 07:45 | 38.62379 | 21.75628 | 36122 ft | 423 kts | 316° |
| 2026-05-08 07:46 | 38.67266 | 21.71387 | 36119 ft | 424 kts | 316° |
| 2026-05-08 07:46 | 38.72120 | 21.67170 | 36115 ft | 424 kts | 317° |
| 2026-05-08 07:47 | 38.77037 | 21.62886 | 36142 ft | 430 kts | 317° |
| 2026-05-08 07:47 | 38.82022 | 21.58531 | 36135 ft | 435 kts | 317° |
| 2026-05-08 07:48 | 38.87055 | 21.54138 | 36149 ft | 440 kts | 317° |
| 2026-05-08 07:48 | 38.92138 | 21.49690 | 36136 ft | 444 kts | 317° |
| 2026-05-08 07:49 | 38.97258 | 21.45208 | 36140 ft | 446 kts | 317° |
| 2026-05-08 07:49 | 39.02398 | 21.40715 | 36149 ft | 446 kts | 317° |
| 2026-05-08 07:50 | 39.07490 | 21.36238 | 36141 ft | 446 kts | 317° |
| 2026-05-08 07:50 | 39.12615 | 21.31704 | 36151 ft | 447 kts | 317° |
| 2026-05-08 07:51 | 39.17748 | 21.27166 | 36152 ft | 448 kts | 318° |
| 2026-05-08 07:51 | 39.22891 | 21.22627 | 36152 ft | 448 kts | 318° |
| 2026-05-08 07:52 | 39.28035 | 21.18070 | 36153 ft | 449 kts | 318° |
| 2026-05-08 07:52 | 39.33181 | 21.13502 | 36177 ft | 449 kts | 318° |
| 2026-05-08 07:53 | 39.38332 | 21.08922 | 36168 ft | 449 kts | 318° |
| 2026-05-08 07:53 | 39.43452 | 21.04352 | 36159 ft | 449 kts | 318° |
| 2026-05-08 07:54 | 39.48606 | 20.99748 | 36133 ft | 451 kts | 318° |
| 2026-05-08 07:54 | 39.53696 | 20.95200 | 36140 ft | 451 kts | 318° |
| 2026-05-08 07:55 | 39.58862 | 20.90576 | 36147 ft | 451 kts | 318° |
| 2026-05-08 07:55 | 39.64021 | 20.85940 | 36151 ft | 451 kts | 318° |
| 2026-05-08 07:56 | 39.69177 | 20.81306 | 36156 ft | 451 kts | 319° |
| 2026-05-08 07:56 | 39.74336 | 20.76656 | 36167 ft | 451 kts | 319° |
| 2026-05-08 07:57 | 39.79458 | 20.72032 | 36150 ft | 451 kts | 319° |
| 2026-05-08 07:57 | 39.84617 | 20.67369 | 36137 ft | 451 kts | 319° |
| 2026-05-08 07:58 | 39.89778 | 20.62702 | 36140 ft | 452 kts | 319° |
| 2026-05-08 07:58 | 39.94952 | 20.58016 | 36105 ft | 454 kts | 319° |
| 2026-05-08 07:59 | 40.00135 | 20.53301 | 36099 ft | 454 kts | 319° |
| 2026-05-08 07:59 | 40.05317 | 20.48563 | 36095 ft | 455 kts | 319° |
| 2026-05-08 08:00 | 40.10480 | 20.43771 | 36106 ft | 455 kts | 318° |
| 2026-05-08 08:00 | 40.15561 | 20.38839 | 36126 ft | 455 kts | 317° |
| 2026-05-08 08:01 | 40.20644 | 20.33875 | 36108 ft | 457 kts | 317° |
| 2026-05-08 08:01 | 40.25764 | 20.28922 | 36091 ft | 458 kts | 318° |
| 2026-05-08 08:02 | 40.30892 | 20.23958 | 36099 ft | 458 kts | 318° |
| 2026-05-08 08:02 | 40.36018 | 20.18979 | 36082 ft | 459 kts | 318° |
| 2026-05-08 08:03 | 40.41145 | 20.13984 | 36097 ft | 459 kts | 318° |
| 2026-05-08 08:03 | 40.46278 | 20.08980 | 36075 ft | 460 kts | 318° |
| 2026-05-08 08:04 | 40.51418 | 20.03977 | 36051 ft | 461 kts | 318° |
| 2026-05-08 08:04 | 40.56538 | 19.98975 | 36049 ft | 461 kts | 318° |
| 2026-05-08 08:05 | 40.61682 | 19.93927 | 36056 ft | 461 kts | 318° |
| 2026-05-08 08:05 | 40.66834 | 19.88868 | 36054 ft | 462 kts | 319° |
| 2026-05-08 08:06 | 40.71986 | 19.83797 | 36047 ft | 462 kts | 319° |
| 2026-05-08 08:06 | 40.77134 | 19.78721 | 36055 ft | 462 kts | 319° |
| 2026-05-08 08:07 | 40.82255 | 19.73659 | 36045 ft | 462 kts | 319° |
| 2026-05-08 08:07 | 40.87407 | 19.68562 | 36039 ft | 463 kts | 319° |
| 2026-05-08 08:08 | 40.92564 | 19.63446 | 36046 ft | 464 kts | 319° |
| 2026-05-08 08:08 | 40.97733 | 19.58306 | 36035 ft | 465 kts | 319° |
| 2026-05-08 08:09 | 41.02913 | 19.53150 | 36037 ft | 466 kts | 319° |
| 2026-05-08 08:09 | 41.08102 | 19.47975 | 36043 ft | 467 kts | 319° |
| 2026-05-08 08:10 | 41.13288 | 19.42787 | 36055 ft | 467 kts | 319° |
| 2026-05-08 08:10 | 41.18469 | 19.37594 | 36055 ft | 467 kts | 319° |
| 2026-05-08 08:11 | 41.23660 | 19.32389 | 36054 ft | 467 kts | 319° |
| 2026-05-08 08:11 | 41.27975 | 19.28053 | 36056 ft | 468 kts | 319° |
| 2026-05-08 08:12 | 41.33161 | 19.22830 | 36065 ft | 468 kts | 319° |
| 2026-05-08 08:12 | 41.38344 | 19.17596 | 36067 ft | 468 kts | 319° |
| 2026-05-08 08:13 | 41.43531 | 19.12343 | 36074 ft | 468 kts | 319° |
| 2026-05-08 08:13 | 41.48712 | 19.07078 | 36076 ft | 468 kts | 319° |
| 2026-05-08 08:14 | 41.53892 | 19.01788 | 36068 ft | 469 kts | 319° |
| 2026-05-08 08:14 | 41.59073 | 18.96479 | 36064 ft | 469 kts | 319° |
| 2026-05-08 08:15 | 41.64254 | 18.91167 | 36067 ft | 469 kts | 319° |
| 2026-05-08 08:15 | 41.69402 | 18.85875 | 36072 ft | 470 kts | 319° |
| 2026-05-08 08:16 | 41.74590 | 18.80537 | 36077 ft | 470 kts | 319° |
| 2026-05-08 08:16 | 41.79775 | 18.75186 | 36082 ft | 471 kts | 319° |
| 2026-05-08 08:17 | 41.84958 | 18.69811 | 36069 ft | 471 kts | 319° |
| 2026-05-08 08:17 | 41.90150 | 18.64423 | 36075 ft | 472 kts | 319° |
| 2026-05-08 08:18 | 41.95341 | 18.59031 | 36075 ft | 472 kts | 319° |
| 2026-05-08 08:18 | 42.00529 | 18.53625 | 36068 ft | 471 kts | 317° |
| 2026-05-08 08:19 | 42.05181 | 18.47498 | 36068 ft | 467 kts | 310° |
| 2026-05-08 08:19 | 42.09680 | 18.41267 | 36071 ft | 467 kts | 310° |
| 2026-05-08 08:20 | 42.14209 | 18.35001 | 36074 ft | 466 kts | 310° |
| 2026-05-08 08:20 | 42.18667 | 18.28810 | 36068 ft | 466 kts | 310° |
| 2026-05-08 08:21 | 42.23177 | 18.22521 | 36062 ft | 465 kts | 310° |
| 2026-05-08 08:21 | 42.27675 | 18.16234 | 36058 ft | 465 kts | 310° |
| 2026-05-08 08:22 | 42.32170 | 18.09948 | 36056 ft | 465 kts | 310° |
| 2026-05-08 08:22 | 42.36659 | 18.03657 | 36055 ft | 465 kts | 310° |
| 2026-05-08 08:23 | 42.41149 | 17.97352 | 36059 ft | 465 kts | 310° |
| 2026-05-08 08:23 | 42.45604 | 17.91080 | 36058 ft | 465 kts | 310° |
| 2026-05-08 08:24 | 42.50078 | 17.84758 | 36053 ft | 465 kts | 310° |
| 2026-05-08 08:24 | 42.54556 | 17.78427 | 36053 ft | 465 kts | 310° |
| 2026-05-08 08:25 | 42.59031 | 17.72096 | 36066 ft | 465 kts | 310° |
| 2026-05-08 08:25 | 42.63508 | 17.65739 | 36058 ft | 465 kts | 310° |
| 2026-05-08 08:26 | 42.67977 | 17.59369 | 36058 ft | 466 kts | 310° |
| 2026-05-08 08:26 | 42.72444 | 17.52982 | 36054 ft | 466 kts | 310° |
| 2026-05-08 08:27 | 42.76909 | 17.46582 | 36050 ft | 466 kts | 310° |
| 2026-05-08 08:27 | 42.81378 | 17.40185 | 36050 ft | 466 kts | 310° |
| 2026-05-08 08:28 | 42.85854 | 17.33769 | 36059 ft | 466 kts | 309° |
| 2026-05-08 08:28 | 42.90311 | 17.27349 | 36055 ft | 466 kts | 309° |
| 2026-05-08 08:29 | 42.94757 | 17.20931 | 36064 ft | 465 kts | 309° |
| 2026-05-08 08:29 | 42.99195 | 17.14509 | 36059 ft | 464 kts | 309° |
| 2026-05-08 08:30 | 43.03630 | 17.08097 | 36055 ft | 464 kts | 309° |
| 2026-05-08 08:30 | 43.10224 | 16.98503 | 36058 ft | 463 kts | 309° |
| 2026-05-08 08:31 | 43.14645 | 16.92051 | 36062 ft | 464 kts | 309° |
| 2026-05-08 08:31 | 43.19051 | 16.85612 | 36062 ft | 463 kts | 309° |
| 2026-05-08 08:32 | 43.23449 | 16.79180 | 36066 ft | 461 kts | 309° |
| 2026-05-08 08:32 | 43.27830 | 16.72749 | 36048 ft | 461 kts | 309° |
| 2026-05-08 08:33 | 43.32203 | 16.66318 | 36067 ft | 460 kts | 309° |
| 2026-05-08 08:33 | 43.36564 | 16.59888 | 36049 ft | 460 kts | 309° |
| 2026-05-08 08:34 | 43.40917 | 16.53447 | 36070 ft | 460 kts | 309° |
| 2026-05-08 08:34 | 43.45237 | 16.47048 | 36074 ft | 459 kts | 309° |
| 2026-05-08 08:35 | 43.49586 | 16.40610 | 36080 ft | 459 kts | 309° |
| 2026-05-08 08:35 | 43.53928 | 16.34148 | 36095 ft | 458 kts | 309° |
| 2026-05-08 08:36 | 43.58260 | 16.27686 | 36088 ft | 458 kts | 309° |
| 2026-05-08 08:36 | 43.62579 | 16.21223 | 36062 ft | 458 kts | 308° |
| 2026-05-08 08:37 | 43.66872 | 16.14796 | 36054 ft | 457 kts | 308° |
| 2026-05-08 08:37 | 43.71206 | 16.08287 | 36056 ft | 457 kts | 308° |
| 2026-05-08 08:38 | 43.75500 | 16.01807 | 36055 ft | 457 kts | 308° |
| 2026-05-08 08:38 | 43.79792 | 15.95332 | 36059 ft | 457 kts | 308° |
| 2026-05-08 08:39 | 43.84084 | 15.88849 | 36055 ft | 457 kts | 308° |
| 2026-05-08 08:39 | 43.88350 | 15.82396 | 36052 ft | 457 kts | 308° |
| 2026-05-08 08:40 | 43.92629 | 15.75891 | 36064 ft | 456 kts | 308° |
| 2026-05-08 08:40 | 43.96896 | 15.69396 | 36064 ft | 455 kts | 308° |
| 2026-05-08 08:41 | 44.01155 | 15.62891 | 36081 ft | 455 kts | 308° |
| 2026-05-08 08:41 | 44.05412 | 15.56382 | 36076 ft | 455 kts | 308° |
| 2026-05-08 08:42 | 44.09667 | 15.49864 | 36073 ft | 455 kts | 308° |
| 2026-05-08 08:42 | 44.13914 | 15.43341 | 36071 ft | 455 kts | 308° |
| 2026-05-08 08:43 | 44.18155 | 15.36803 | 36096 ft | 454 kts | 308° |
| 2026-05-08 08:43 | 44.22383 | 15.30276 | 36084 ft | 453 kts | 308° |
| 2026-05-08 08:44 | 44.26604 | 15.23749 | 36072 ft | 453 kts | 308° |
| 2026-05-08 08:44 | 44.30815 | 15.17212 | 36070 ft | 452 kts | 308° |
| 2026-05-08 08:45 | 44.34998 | 15.10713 | 36076 ft | 452 kts | 308° |
| 2026-05-08 08:45 | 44.39207 | 15.04163 | 36079 ft | 452 kts | 307° |
| 2026-05-08 08:46 | 44.43403 | 14.97599 | 36070 ft | 453 kts | 307° |
| 2026-05-08 08:46 | 44.47605 | 14.91023 | 36065 ft | 453 kts | 307° |
| 2026-05-08 08:47 | 44.51799 | 14.84446 | 36062 ft | 453 kts | 307° |
| 2026-05-08 08:47 | 44.55994 | 14.77859 | 36062 ft | 453 kts | 307° |
| 2026-05-08 08:48 | 44.60185 | 14.71253 | 36061 ft | 453 kts | 307° |
| 2026-05-08 08:48 | 44.64367 | 14.64628 | 36072 ft | 453 kts | 307° |
| 2026-05-08 08:49 | 44.68524 | 14.58043 | 36071 ft | 453 kts | 307° |
| 2026-05-08 08:49 | 44.72705 | 14.51416 | 36078 ft | 453 kts | 307° |
| 2026-05-08 08:50 | 44.76881 | 14.44781 | 36071 ft | 453 kts | 307° |
| 2026-05-08 08:50 | 44.81049 | 14.38130 | 36072 ft | 453 kts | 307° |
| 2026-05-08 08:51 | 44.85221 | 14.31459 | 36068 ft | 453 kts | 307° |
| 2026-05-08 08:51 | 44.89384 | 14.24790 | 36075 ft | 452 kts | 306° |
| 2026-05-08 08:52 | 44.93515 | 14.18154 | 36078 ft | 453 kts | 306° |
| 2026-05-08 08:52 | 44.97676 | 14.11448 | 36075 ft | 454 kts | 306° |
| 2026-05-08 08:53 | 45.01837 | 14.04729 | 36070 ft | 454 kts | 306° |
| 2026-05-08 08:53 | 45.05999 | 13.97995 | 36071 ft | 455 kts | 306° |
| 2026-05-08 08:54 | 45.10157 | 13.91251 | 36082 ft | 455 kts | 306° |
| 2026-05-08 08:54 | 45.14312 | 13.84501 | 36085 ft | 454 kts | 306° |
| 2026-05-08 08:55 | 45.18458 | 13.77746 | 36090 ft | 454 kts | 306° |
| 2026-05-08 08:55 | 45.22602 | 13.70982 | 36092 ft | 454 kts | 306° |
| 2026-05-08 08:56 | 45.26731 | 13.64222 | 36093 ft | 453 kts | 306° |
| 2026-05-08 08:56 | 45.30852 | 13.57453 | 36106 ft | 453 kts | 305° |
| 2026-05-08 08:57 | 45.34943 | 13.50712 | 36101 ft | 453 kts | 305° |
| 2026-05-08 08:57 | 45.39050 | 13.43934 | 36108 ft | 452 kts | 305° |
| 2026-05-08 08:58 | 45.43153 | 13.37156 | 36100 ft | 452 kts | 305° |
| 2026-05-08 08:58 | 45.46584 | 13.31470 | 36119 ft | 452 kts | 305° |
| 2026-05-08 08:59 | 45.50904 | 13.24991 | 36178 ft | 456 kts | 311° |
| 2026-05-08 08:59 | 45.53217 | 13.21888 | 36304 ft | 456 kts | 311° |
| 2026-05-08 08:59 | 45.55520 | 13.18793 | 36433 ft | 455 kts | 311° |
| 2026-05-08 09:00 | 45.57819 | 13.15701 | 36556 ft | 454 kts | 311° |
| 2026-05-08 09:00 | 45.60115 | 13.12607 | 36687 ft | 453 kts | 311° |
| 2026-05-08 09:00 | 45.62406 | 13.09513 | 36828 ft | 453 kts | 311° |
| 2026-05-08 09:00 | 45.64689 | 13.06425 | 36965 ft | 452 kts | 311° |
| 2026-05-08 09:01 | 45.66969 | 13.03337 | 37098 ft | 451 kts | 311° |
| 2026-05-08 09:01 | 45.69246 | 13.00245 | 37249 ft | 450 kts | 311° |
| 2026-05-08 09:01 | 45.71515 | 12.97160 | 37390 ft | 450 kts | 311° |
| 2026-05-08 09:01 | 45.73781 | 12.94081 | 37508 ft | 449 kts | 311° |
| 2026-05-08 09:02 | 45.76043 | 12.91003 | 37642 ft | 448 kts | 311° |
| 2026-05-08 09:02 | 45.78243 | 12.88002 | 37774 ft | 448 kts | 311° |
| 2026-05-08 09:02 | 45.80497 | 12.84926 | 37917 ft | 447 kts | 311° |
| 2026-05-08 09:02 | 45.82746 | 12.81854 | 38057 ft | 447 kts | 311° |
| 2026-05-08 09:03 | 45.87261 | 12.75678 | 38059 ft | 451 kts | 311° |
| 2026-05-08 09:03 | 45.91813 | 12.69452 | 38080 ft | 453 kts | 311° |
| 2026-05-08 09:04 | 45.96365 | 12.63200 | 38083 ft | 453 kts | 311° |
| 2026-05-08 09:04 | 46.00909 | 12.56929 | 38081 ft | 453 kts | 311° |
| 2026-05-08 09:05 | 46.05452 | 12.50641 | 38088 ft | 453 kts | 311° |
| 2026-05-08 09:05 | 46.10003 | 12.44349 | 38097 ft | 454 kts | 311° |
| 2026-05-08 09:06 | 46.14559 | 12.38040 | 38105 ft | 455 kts | 311° |
| 2026-05-08 09:06 | 46.19113 | 12.31705 | 38103 ft | 455 kts | 311° |
| 2026-05-08 09:07 | 46.23672 | 12.25346 | 38085 ft | 454 kts | 311° |
| 2026-05-08 09:07 | 46.28188 | 12.19021 | 38101 ft | 456 kts | 311° |
| 2026-05-08 09:08 | 46.32744 | 12.12642 | 38108 ft | 454 kts | 311° |
| 2026-05-08 09:08 | 46.37296 | 12.06261 | 38115 ft | 455 kts | 311° |
| 2026-05-08 09:09 | 46.41847 | 11.99868 | 38106 ft | 456 kts | 311° |
| 2026-05-08 09:09 | 46.46389 | 11.93457 | 38098 ft | 456 kts | 311° |
| 2026-05-08 09:10 | 46.50930 | 11.87018 | 38099 ft | 457 kts | 311° |
| 2026-05-08 09:10 | 46.55486 | 11.80562 | 38095 ft | 457 kts | 311° |
| 2026-05-08 09:11 | 46.60030 | 11.74103 | 38110 ft | 457 kts | 311° |
| 2026-05-08 09:11 | 46.64491 | 11.67539 | 38109 ft | 455 kts | 309° |
| 2026-05-08 09:12 | 46.68784 | 11.60857 | 38105 ft | 454 kts | 309° |
| 2026-05-08 09:12 | 46.73090 | 11.54114 | 38107 ft | 455 kts | 308° |
| 2026-05-08 09:13 | 46.77336 | 11.47535 | 38108 ft | 455 kts | 309° |
| 2026-05-08 09:13 | 46.81686 | 11.40828 | 38142 ft | 454 kts | 309° |
| 2026-05-08 09:14 | 46.86024 | 11.34112 | 38113 ft | 455 kts | 309° |
| 2026-05-08 09:14 | 46.90364 | 11.27355 | 38111 ft | 454 kts | 309° |
| 2026-05-08 09:15 | 46.94782 | 11.20740 | 38097 ft | 457 kts | 316° |
| 2026-05-08 09:15 | 46.99939 | 11.15192 | 38108 ft | 461 kts | 320° |
| 2026-05-08 09:16 | 47.05149 | 11.09698 | 38099 ft | 461 kts | 320° |
| 2026-05-08 09:16 | 47.10356 | 11.04183 | 38104 ft | 462 kts | 320° |
| 2026-05-08 09:17 | 47.15566 | 10.98646 | 38099 ft | 462 kts | 320° |
| 2026-05-08 09:17 | 47.20744 | 10.93139 | 38091 ft | 463 kts | 320° |
| 2026-05-08 09:18 | 47.25961 | 10.87583 | 38082 ft | 462 kts | 320° |
| 2026-05-08 09:18 | 47.31167 | 10.82005 | 38096 ft | 462 kts | 320° |
| 2026-05-08 09:19 | 47.36368 | 10.76424 | 38078 ft | 462 kts | 320° |
| 2026-05-08 09:19 | 47.41578 | 10.70836 | 38071 ft | 462 kts | 320° |
| 2026-05-08 09:20 | 47.46767 | 10.65237 | 38063 ft | 462 kts | 320° |
| 2026-05-08 09:20 | 47.51950 | 10.59621 | 38063 ft | 462 kts | 320° |
| 2026-05-08 09:21 | 47.57137 | 10.54010 | 38071 ft | 461 kts | 320° |
| 2026-05-08 09:23 | 47.75213 | 10.34273 | 38074 ft | 461 kts | 319° |
| 2026-05-08 09:23 | 47.80198 | 10.28380 | 38088 ft | 460 kts | 317° |
| 2026-05-08 09:24 | 47.85101 | 10.22267 | 38123 ft | 459 kts | 316° |
| 2026-05-08 09:24 | 47.90005 | 10.16163 | 38140 ft | 460 kts | 317° |
| 2026-05-08 09:25 | 47.94939 | 10.10108 | 38130 ft | 459 kts | 317° |
| 2026-05-08 09:25 | 47.99830 | 10.04137 | 38130 ft | 459 kts | 317° |
| 2026-05-08 09:26 | 48.04758 | 9.98072 | 38103 ft | 459 kts | 317° |
| 2026-05-08 09:26 | 48.09688 | 9.91971 | 38102 ft | 459 kts | 317° |
| 2026-05-08 09:27 | 48.14609 | 9.85875 | 38103 ft | 459 kts | 317° |
| 2026-05-08 09:27 | 48.19526 | 9.79768 | 38106 ft | 459 kts | 317° |
| 2026-05-08 09:28 | 48.24407 | 9.73692 | 38113 ft | 459 kts | 317° |
| 2026-05-08 09:28 | 48.29331 | 9.67568 | 38105 ft | 459 kts | 317° |
| 2026-05-08 09:29 | 48.34241 | 9.61421 | 38100 ft | 459 kts | 317° |
| 2026-05-08 09:29 | 48.39124 | 9.55214 | 38097 ft | 459 kts | 316° |
| 2026-05-08 09:30 | 48.43984 | 9.48969 | 38111 ft | 459 kts | 316° |
| 2026-05-08 09:30 | 48.48845 | 9.42707 | 38105 ft | 459 kts | 316° |
| 2026-05-08 09:31 | 48.53702 | 9.36459 | 38123 ft | 459 kts | 316° |
| 2026-05-08 09:31 | 48.58560 | 9.30201 | 38123 ft | 459 kts | 316° |
| 2026-05-08 09:32 | 48.63417 | 9.23920 | 38125 ft | 459 kts | 316° |
| 2026-05-08 09:32 | 48.68265 | 9.17633 | 38124 ft | 459 kts | 316° |
| 2026-05-08 09:33 | 48.73075 | 9.11376 | 38142 ft | 459 kts | 316° |
| 2026-05-08 09:33 | 48.77909 | 9.05072 | 38131 ft | 458 kts | 316° |
| 2026-05-08 09:34 | 48.82744 | 8.98746 | 38124 ft | 458 kts | 316° |
| 2026-05-08 09:34 | 48.87566 | 8.92419 | 38119 ft | 458 kts | 316° |
| 2026-05-08 09:35 | 48.92386 | 8.86080 | 38115 ft | 458 kts | 316° |
| 2026-05-08 09:35 | 48.97205 | 8.79737 | 38128 ft | 458 kts | 316° |
| 2026-05-08 09:36 | 49.02010 | 8.73383 | 38129 ft | 457 kts | 316° |
| 2026-05-08 09:36 | 49.06813 | 8.67003 | 38125 ft | 457 kts | 316° |
| 2026-05-08 09:37 | 49.11617 | 8.60623 | 38123 ft | 457 kts | 316° |
| 2026-05-08 09:37 | 49.16420 | 8.54255 | 38121 ft | 457 kts | 316° |
| 2026-05-08 09:38 | 49.21218 | 8.47863 | 38123 ft | 457 kts | 315° |
| 2026-05-08 09:38 | 49.25997 | 8.41458 | 38134 ft | 457 kts | 315° |
| 2026-05-08 09:39 | 49.30769 | 8.35039 | 38133 ft | 457 kts | 315° |
| 2026-05-08 09:39 | 49.35538 | 8.28608 | 38132 ft | 456 kts | 315° |
| 2026-05-08 09:40 | 49.40273 | 8.22218 | 38133 ft | 456 kts | 315° |
| 2026-05-08 09:40 | 49.45037 | 8.15773 | 38134 ft | 456 kts | 315° |
| 2026-05-08 09:41 | 49.49795 | 8.09310 | 38137 ft | 456 kts | 315° |
| 2026-05-08 09:41 | 49.54554 | 8.02835 | 38140 ft | 456 kts | 315° |
| 2026-05-08 09:42 | 49.59308 | 7.96350 | 38134 ft | 457 kts | 315° |
| 2026-05-08 09:42 | 49.64058 | 7.89851 | 38136 ft | 457 kts | 315° |
| 2026-05-08 09:43 | 49.68808 | 7.83343 | 38131 ft | 457 kts | 315° |
| 2026-05-08 09:43 | 49.73556 | 7.76818 | 38143 ft | 457 kts | 315° |
| 2026-05-08 09:44 | 49.78297 | 7.70273 | 38144 ft | 457 kts | 315° |
| 2026-05-08 09:44 | 49.82991 | 7.63772 | 38140 ft | 457 kts | 315° |
| 2026-05-08 09:45 | 49.86932 | 7.58305 | 38133 ft | 458 kts | 315° |
| 2026-05-08 09:45 | 49.91677 | 7.51704 | 38126 ft | 458 kts | 315° |
| 2026-05-08 09:46 | 49.97190 | 7.44015 | 38131 ft | 458 kts | 315° |
| 2026-05-08 09:46 | 50.01049 | 7.38311 | 38126 ft | 454 kts | 306° |
| 2026-05-08 09:47 | 50.04277 | 7.29965 | 38123 ft | 450 kts | 296° |
| 2026-05-08 09:47 | 50.07289 | 7.21413 | 38119 ft | 451 kts | 296° |
| 2026-05-08 09:48 | 50.10264 | 7.12879 | 38119 ft | 451 kts | 296° |
| 2026-05-08 09:48 | 50.13265 | 7.04269 | 38118 ft | 451 kts | 296° |
| 2026-05-08 09:49 | 50.16269 | 6.95661 | 38113 ft | 452 kts | 296° |
| 2026-05-08 09:49 | 50.19266 | 6.87043 | 38128 ft | 452 kts | 296° |
| 2026-05-08 09:50 | 50.22257 | 6.78414 | 38123 ft | 452 kts | 296° |
| 2026-05-08 09:50 | 50.25246 | 6.69754 | 38128 ft | 453 kts | 296° |
| 2026-05-08 09:51 | 50.28234 | 6.61060 | 38124 ft | 453 kts | 296° |
| 2026-05-08 09:51 | 50.31206 | 6.52370 | 38125 ft | 453 kts | 296° |
| 2026-05-08 09:52 | 50.34153 | 6.43720 | 38133 ft | 453 kts | 296° |
| 2026-05-08 09:52 | 50.37118 | 6.35007 | 38132 ft | 453 kts | 296° |
| 2026-05-08 09:53 | 50.40081 | 6.26290 | 38133 ft | 453 kts | 296° |
| 2026-05-08 09:53 | 50.43018 | 6.17608 | 38109 ft | 444 kts | 295° |
| 2026-05-08 09:54 | 50.45881 | 6.09105 | 37977 ft | 440 kts | 295° |
| 2026-05-08 09:54 | 50.47314 | 6.04840 | 37181 ft | 442 kts | 295° |
| 2026-05-08 09:54 | 50.48743 | 6.00588 | 36470 ft | 440 kts | 295° |
| 2026-05-08 09:54 | 50.50168 | 5.96331 | 35661 ft | 441 kts | 295° |
| 2026-05-08 09:55 | 50.51595 | 5.92056 | 34783 ft | 443 kts | 295° |
| 2026-05-08 09:55 | 50.53025 | 5.87769 | 33952 ft | 443 kts | 294° |
| 2026-05-08 09:55 | 50.54458 | 5.83463 | 32870 ft | 445 kts | 295° |
| 2026-05-08 09:55 | 50.55892 | 5.79136 | 31841 ft | 447 kts | 295° |
| 2026-05-08 09:56 | 50.57328 | 5.74802 | 30835 ft | 448 kts | 295° |
| 2026-05-08 09:56 | 50.58880 | 5.70587 | 29606 ft | 455 kts | 302° |
| 2026-05-08 09:56 | 50.60822 | 5.66623 | 28492 ft | 456 kts | 307° |
| 2026-05-08 09:56 | 50.62793 | 5.62787 | 27872 ft | 447 kts | 307° |
| 2026-05-08 09:57 | 50.66641 | 5.55248 | 26369 ft | 437 kts | 307° |
| 2026-05-08 09:57 | 50.68531 | 5.51518 | 25642 ft | 433 kts | 307° |
| 2026-05-08 09:57 | 50.70399 | 5.47828 | 24929 ft | 429 kts | 307° |
| 2026-05-08 09:58 | 50.72255 | 5.44156 | 24226 ft | 426 kts | 307° |
| 2026-05-08 09:58 | 50.74100 | 5.40501 | 23475 ft | 424 kts | 307° |
| 2026-05-08 09:58 | 50.75927 | 5.36874 | 22775 ft | 419 kts | 307° |
| 2026-05-08 09:58 | 50.77725 | 5.33298 | 22144 ft | 413 kts | 307° |
| 2026-05-08 09:59 | 50.79507 | 5.29758 | 21530 ft | 408 kts | 307° |
| 2026-05-08 09:59 | 50.81263 | 5.26262 | 20940 ft | 404 kts | 307° |
| 2026-05-08 09:59 | 50.82997 | 5.22795 | 20380 ft | 399 kts | 307° |
| 2026-05-08 09:59 | 50.84709 | 5.19362 | 19829 ft | 395 kts | 306° |
| 2026-05-08 10:00 | 50.86216 | 5.15776 | 19316 ft | 389 kts | 296° |
| 2026-05-08 10:00 | 50.87283 | 5.11875 | 18804 ft | 384 kts | 286° |
| 2026-05-08 10:00 | 50.87885 | 5.07797 | 18286 ft | 378 kts | 276° |
| 2026-05-08 10:00 | 50.88102 | 5.03675 | 17753 ft | 373 kts | 272° |
| 2026-05-08 10:01 | 50.88279 | 4.99602 | 17245 ft | 369 kts | 273° |
| 2026-05-08 10:01 | 50.88459 | 4.95572 | 16746 ft | 365 kts | 273° |
| 2026-05-08 10:01 | 50.88639 | 4.91622 | 16233 ft | 362 kts | 273° |
| 2026-05-08 10:01 | 50.88816 | 4.87658 | 15712 ft | 360 kts | 273° |
| 2026-05-08 10:02 | 50.88988 | 4.83718 | 15184 ft | 357 kts | 273° |
| 2026-05-08 10:02 | 50.89153 | 4.79800 | 14651 ft | 356 kts | 273° |
| 2026-05-08 10:02 | 50.89316 | 4.75899 | 14105 ft | 354 kts | 273° |
| 2026-05-08 10:02 | 50.89477 | 4.72011 | 13522 ft | 353 kts | 273° |
| 2026-05-08 10:03 | 50.89638 | 4.68145 | 12974 ft | 350 kts | 273° |
| 2026-05-08 10:03 | 50.89798 | 4.64307 | 12404 ft | 348 kts | 273° |
| 2026-05-08 10:03 | 50.89958 | 4.60493 | 11839 ft | 346 kts | 273° |
| 2026-05-08 10:03 | 50.90114 | 4.56700 | 11265 ft | 344 kts | 272° |
| 2026-05-08 10:04 | 50.90280 | 4.52943 | 10830 ft | 338 kts | 274° |
| 2026-05-08 10:04 | 50.90542 | 4.49315 | 10704 ft | 323 kts | 276° |
| 2026-05-08 10:04 | 50.90855 | 4.45862 | 10581 ft | 310 kts | 277° |
| 2026-05-08 10:04 | 50.91179 | 4.42551 | 10455 ft | 298 kts | 277° |
| 2026-05-08 10:05 | 50.91492 | 4.39350 | 10222 ft | 291 kts | 277° |
| 2026-05-08 10:05 | 50.91794 | 4.36195 | 10019 ft | 288 kts | 277° |
| 2026-05-08 10:05 | 50.92085 | 4.33054 | 9889 ft | 288 kts | 277° |
| 2026-05-08 10:05 | 50.92365 | 4.29909 | 9736 ft | 288 kts | 277° |
| 2026-05-08 10:06 | 50.92639 | 4.26775 | 9376 ft | 287 kts | 277° |
| 2026-05-08 10:06 | 50.92912 | 4.23653 | 8980 ft | 285 kts | 277° |
| 2026-05-08 10:06 | 50.93185 | 4.20549 | 8583 ft | 284 kts | 277° |
| 2026-05-08 10:06 | 50.93225 | 4.17448 | 8186 ft | 280 kts | 261° |
| 2026-05-08 10:07 | 50.92665 | 4.14523 | 7799 ft | 276 kts | 242° |
| 2026-05-08 10:07 | 50.91570 | 4.12054 | 7379 ft | 273 kts | 224° |
| 2026-05-08 10:07 | 50.90142 | 4.10152 | 6973 ft | 271 kts | 215° |
| 2026-05-08 10:07 | 50.88480 | 4.08827 | 6563 ft | 267 kts | 193° |
| 2026-05-08 10:08 | 50.86672 | 4.08670 | 6144 ft | 255 kts | 169° |
| 2026-05-08 10:08 | 50.85044 | 4.09537 | 5759 ft | 241 kts | 154° |
| 2026-05-08 10:08 | 50.83552 | 4.10619 | 5402 ft | 232 kts | 154° |
| 2026-05-08 10:08 | 50.82111 | 4.11757 | 4969 ft | 230 kts | 143° |
| 2026-05-08 10:09 | 50.81225 | 4.13751 | 4594 ft | 224 kts | 102° |
| 2026-05-08 10:09 | 50.81366 | 4.16128 | 4262 ft | 219 kts | 65° |
| 2026-05-08 10:09 | 50.82058 | 4.18258 | 3943 ft | 217 kts | 65° |
| 2026-05-08 10:09 | 50.82691 | 4.20413 | 3630 ft | 215 kts | 66° |
| 2026-05-08 10:10 | 50.83298 | 4.22576 | 3314 ft | 216 kts | 66° |
| 2026-05-08 10:10 | 50.83903 | 4.24739 | 2980 ft | 212 kts | 66° |
| 2026-05-08 10:10 | 50.84493 | 4.26824 | 2711 ft | 203 kts | 66° |
| 2026-05-08 10:10 | 50.85060 | 4.28805 | 2481 ft | 191 kts | 66° |
| 2026-05-08 10:11 | 50.85597 | 4.30667 | 2208 ft | 177 kts | 66° |
| 2026-05-08 10:11 | 50.86080 | 4.32335 | 1995 ft | 156 kts | 66° |
| 2026-05-08 10:11 | 50.86510 | 4.33823 | 1786 ft | 142 kts | 66° |
| 2026-05-08 10:11 | 50.86908 | 4.35204 | 1602 ft | 135 kts | 66° |
| 2026-05-08 10:12 | 50.87292 | 4.36541 | 1422 ft | 133 kts | 66° |
| 2026-05-08 10:12 | 50.87673 | 4.37863 | 1252 ft | 131 kts | 66° |
| 2026-05-08 10:12 | 50.88052 | 4.39172 | 1072 ft | 131 kts | 66° |
| 2026-05-08 10:12 | 50.88430 | 4.40485 | 904 ft | 131 kts | 65° |
| 2026-05-08 10:13 | 50.88808 | 4.41791 | 754 ft | 130 kts | 66° |
| 2026-05-08 10:13 | 50.89178 | 4.43098 | 572 ft | 129 kts | 65° |
| 2026-05-08 10:13 | 50.89553 | 4.44392 | 378 ft | 129 kts | 64° |
| 2026-05-08 10:13 | 50.89925 | 4.45682 | 205 ft | 128 kts | 65° |
| 2026-05-08 10:14 | 50.90270 | 4.46873 | 126 ft | 91 kts | 66° |
| 2026-05-08 10:14 | 50.90436 | 4.47448 | 125 ft | 45 kts | 67° |
| 2026-05-08 10:14 | 50.90562 | 4.47886 | 122 ft | 42 kts | 64° |
| 2026-05-08 10:14 | 50.90654 | 4.48235 | 121 ft | 28 kts | 85° |
| 2026-05-08 10:15 | 50.90607 | 4.48438 | 119 ft | 11 kts | 122° |
| 2026-05-08 10:15 | 50.90598 | 4.48460 | 120 ft | 0 kts | 122° |
| 2026-05-08 10:16 | 50.90598 | 4.48461 | 119 ft | 1 kts | 122° |
| 2026-05-08 10:16 | 50.90564 | 4.48550 | 119 ft | 14 kts | 122° |
| 2026-05-08 10:16 | 50.90488 | 4.48532 | 119 ft | 13 kts | 241° |
| 2026-05-08 10:16 | 50.90453 | 4.48409 | 121 ft | 9 kts | 246° |